createdAt,value
2022-09-23T00:01:07.626Z,3.88
2022-09-23T00:03:37.160Z,3.80
2022-09-23T00:06:07.101Z,3.55
2022-09-23T00:08:34.310Z,4.22
2022-09-23T00:11:25.157Z,3.67
2022-09-23T00:13:55.514Z,3.83
2022-09-23T00:16:25.780Z,3.33
2022-09-23T00:18:52.647Z,3.90
2022-09-23T00:21:21.208Z,3.78
2022-09-23T00:23:48.501Z,4.22
2022-09-23T00:26:17.245Z,3.63
2022-09-23T00:28:44.002Z,3.47
2022-09-23T00:31:14.409Z,4.00
2022-09-23T00:33:41.440Z,4.00
2022-09-23T00:36:11.967Z,4.10
2022-09-23T00:38:39.112Z,3.97
2022-09-23T00:41:06.466Z,5.47
2022-09-23T00:43:37.538Z,4.50
2022-09-23T00:46:04.603Z,4.33
2022-09-23T00:48:31.394Z,4.43
2022-09-23T00:50:58.077Z,3.80
2022-09-23T00:53:29.628Z,3.97
2022-09-23T00:56:04.401Z,4.25
2022-09-23T00:58:34.026Z,4.20
2022-09-23T01:01:02.332Z,4.32
2022-09-23T01:03:29.209Z,4.32
2022-09-23T01:05:57.258Z,4.38
2022-09-23T01:08:24.515Z,4.30
2022-09-23T01:11:15.315Z,4.30
2022-09-23T01:13:52.474Z,4.38
2022-09-23T01:16:43.497Z,4.18
2022-09-23T01:19:57.737Z,4.97
2022-09-23T01:22:29.720Z,4.63
2022-09-23T01:25:17.566Z,4.78
2022-09-23T01:27:55.877Z,4.75
2022-09-23T01:30:37.937Z,4.90
2022-09-23T01:33:39.504Z,4.38
2022-09-23T01:36:36.138Z,4.75
2022-09-23T01:39:35.066Z,5.30
2022-09-23T01:42:14.257Z,4.75
2022-09-23T01:44:51.767Z,5.35
2022-09-23T01:47:48.140Z,5.00
2022-09-23T01:50:37.477Z,4.70
2022-09-23T01:53:14.476Z,4.65
2022-09-23T01:55:47.470Z,5.05
2022-09-23T01:58:53.764Z,4.63
2022-09-23T02:01:31.116Z,5.07
2022-09-23T02:04:04.223Z,4.90
2022-09-23T02:06:51.130Z,5.55
2022-09-23T02:09:24.943Z,4.70
2022-09-23T02:11:58.751Z,5.22
2022-09-23T02:14:31.463Z,5.65
2022-09-23T02:17:03.277Z,5.10
2022-09-23T02:22:23.431Z,5.60
2022-09-23T02:24:50.430Z,5.22
2022-09-23T02:27:24.168Z,5.72
2022-09-23T02:30:12.534Z,6.03
2022-09-23T02:32:42.062Z,5.82
2022-09-23T02:35:22.570Z,6.82
2022-09-23T02:37:59.270Z,6.45
2022-09-23T02:40:43.631Z,6.70
2022-09-23T02:43:35.608Z,6.60
2022-09-23T02:46:04.754Z,6.68
2022-09-23T02:48:41.519Z,6.00
2022-09-23T02:51:09.903Z,6.22
2022-09-23T02:53:37.246Z,6.25
2022-09-23T02:56:14.777Z,7.28
2022-09-23T02:58:41.731Z,5.90
2022-09-23T03:01:37.272Z,7.18
2022-09-23T03:04:19.002Z,6.03
2022-09-23T03:07:00.709Z,7.10
2022-09-23T03:09:44.525Z,6.60
2022-09-23T03:12:22.233Z,6.45
2022-09-23T03:15:24.811Z,7.55
2022-09-23T03:18:02.880Z,6.70
2022-09-23T03:21:05.190Z,6.90
2022-09-23T03:26:20.922Z,6.13
2022-09-23T03:28:50.252Z,8.38
2022-09-23T03:31:18.055Z,6.55
2022-09-23T03:33:52.200Z,6.45
2022-09-23T03:36:44.106Z,7.45
2022-09-23T03:39:18.247Z,7.13
2022-09-23T03:41:50.769Z,7.18
2022-09-23T03:44:19.577Z,8.10
2022-09-23T03:46:49.792Z,8.25
2022-09-23T03:49:27.345Z,8.13
2022-09-23T03:51:55.024Z,7.70
2022-09-23T03:54:21.983Z,8.85
2022-09-23T03:56:48.739Z,8.80
2022-09-23T03:59:16.040Z,7.85
2022-09-23T04:01:43.139Z,8.35
2022-09-23T04:04:10.355Z,7.68
2022-09-23T04:06:37.037Z,7.80
2022-09-23T04:09:03.894Z,8.10
2022-09-23T04:11:30.728Z,8.57
2022-09-23T04:13:57.518Z,8.32
2022-09-23T04:16:24.830Z,7.50
2022-09-23T04:18:51.854Z,8.13
2022-09-23T04:21:18.532Z,10.27
2022-09-23T04:23:46.397Z,8.40
2022-09-23T04:26:13.561Z,8.68
2022-09-23T04:28:40.397Z,7.90
2022-09-23T04:31:08.567Z,9.18
2022-09-23T04:33:35.650Z,7.90
2022-09-23T04:36:02.414Z,8.93
2022-09-23T04:38:29.189Z,8.55
2022-09-23T04:40:55.922Z,8.73
2022-09-23T04:43:23.660Z,8.90
2022-09-23T04:46:05.149Z,8.77
2022-09-23T04:48:32.336Z,8.93
2022-09-23T04:51:04.140Z,9.07
2022-09-23T04:56:02.828Z,9.00
2022-09-23T04:58:29.481Z,10.43
2022-09-23T05:01:00.589Z,9.88
2022-09-23T05:03:35.117Z,10.48
2022-09-23T05:06:02.086Z,10.57
2022-09-23T05:08:29.544Z,10.43
2022-09-23T05:11:00.260Z,12.02
2022-09-23T05:13:27.291Z,11.65
2022-09-23T05:16:02.272Z,11.98
2022-09-23T05:18:31.990Z,11.40
2022-09-23T05:20:58.685Z,11.00
2022-09-23T05:23:25.713Z,11.35
2022-09-23T05:26:03.921Z,10.73
2022-09-23T05:28:34.973Z,11.15
2022-09-23T05:31:05.904Z,11.85
2022-09-23T05:33:34.133Z,11.77
2022-09-23T05:36:01.783Z,11.32
2022-09-23T05:38:29.369Z,12.15
2022-09-23T05:41:04.647Z,11.50
2022-09-23T05:43:32.286Z,10.82
2022-09-23T05:46:08.506Z,10.68
2022-09-23T05:48:36.673Z,11.02
2022-09-23T05:51:04.562Z,10.77
2022-09-23T05:53:31.454Z,11.25
2022-09-23T05:55:58.213Z,11.30
2022-09-23T05:58:25.325Z,11.75
2022-09-23T06:00:52.273Z,10.52
2022-09-23T06:03:20.500Z,11.35
2022-09-23T06:05:48.431Z,11.00
2022-09-23T06:08:15.465Z,12.00
2022-09-23T06:10:45.070Z,11.20
2022-09-23T06:13:12.041Z,11.38
2022-09-23T06:15:39.523Z,11.65
2022-09-23T06:18:06.939Z,11.32
2022-09-23T06:20:34.902Z,10.98
2022-09-23T06:23:10.220Z,10.68
2022-09-23T06:25:38.504Z,10.98
2022-09-23T06:28:12.088Z,10.90
2022-09-23T06:30:42.662Z,11.20
2022-09-23T06:33:10.051Z,10.38
2022-09-23T06:35:36.811Z,10.68
2022-09-23T06:38:04.931Z,10.50
2022-09-23T06:40:32.528Z,10.60
2022-09-23T06:43:00.739Z,11.38
2022-09-23T06:45:28.466Z,11.25
2022-09-23T06:47:57.015Z,11.60
2022-09-23T06:50:27.431Z,11.57
2022-09-23T06:52:56.177Z,11.40
2022-09-23T06:55:24.763Z,11.40
2022-09-23T06:57:51.528Z,10.95
2022-09-23T07:00:19.109Z,12.02
2022-09-23T07:02:46.200Z,11.95
2022-09-23T07:05:13.487Z,11.23
2022-09-23T07:07:40.228Z,11.15
2022-09-23T07:10:07.845Z,11.77
2022-09-23T07:12:34.551Z,11.35
2022-09-23T07:15:01.183Z,11.02
2022-09-23T07:17:28.202Z,12.05
2022-09-23T07:19:58.424Z,10.38
2022-09-23T07:22:28.421Z,10.18
2022-09-23T07:24:57.761Z,11.35
2022-09-23T07:27:25.838Z,11.18
2022-09-23T07:29:53.238Z,11.40
2022-09-23T07:32:22.063Z,10.90
2022-09-23T07:34:49.333Z,10.10
2022-09-23T07:37:17.331Z,9.85
2022-09-23T07:39:45.065Z,9.82
2022-09-23T07:42:14.240Z,10.48
2022-09-23T07:44:47.716Z,10.20
2022-09-23T07:47:15.647Z,10.48
2022-09-23T07:49:42.309Z,10.57
2022-09-23T07:52:08.961Z,9.90
2022-09-23T07:54:35.703Z,9.90
2022-09-23T07:57:02.587Z,10.00
2022-09-23T07:59:29.373Z,10.60
2022-09-23T08:01:57.248Z,9.32
2022-09-23T08:04:28.182Z,9.15
2022-09-23T08:07:00.220Z,9.50
2022-09-23T08:09:31.759Z,9.95
2022-09-23T08:11:58.610Z,9.20
2022-09-23T08:14:25.335Z,8.50
2022-09-23T08:16:52.246Z,9.68
2022-09-23T08:19:19.137Z,9.65
2022-09-23T08:21:47.500Z,9.45
2022-09-23T08:24:19.368Z,8.60
2022-09-23T08:29:15.240Z,8.18
2022-09-23T08:31:42.608Z,8.07
2022-09-23T08:34:09.666Z,9.77
2022-09-23T08:36:37.125Z,8.50
2022-09-23T08:39:05.118Z,8.70
2022-09-23T08:41:40.531Z,8.50
2022-09-23T08:44:37.490Z,8.07
2022-09-23T08:47:34.722Z,7.40
2022-09-23T08:50:18.116Z,7.85
2022-09-23T08:52:56.857Z,8.70
2022-09-23T08:55:43.574Z,8.88
2022-09-23T08:58:35.162Z,8.60
2022-09-23T09:01:40.563Z,8.40
2022-09-23T09:04:22.939Z,8.77
2022-09-23T09:07:31.736Z,8.45
2022-09-23T09:10:16.689Z,8.70
2022-09-23T09:12:44.877Z,8.48
2022-09-23T09:15:13.162Z,7.63
2022-09-23T09:18:02.300Z,8.35
2022-09-23T09:20:54.797Z,8.18
2022-09-23T09:23:22.687Z,8.35
2022-09-23T09:25:52.608Z,9.02
2022-09-23T09:28:35.797Z,7.60
2022-09-23T09:31:22.808Z,8.10
2022-09-23T09:34:00.396Z,8.10
2022-09-23T09:36:36.249Z,7.70
2022-09-23T09:39:03.692Z,7.97
2022-09-23T09:41:31.570Z,8.13
2022-09-23T09:44:01.398Z,8.30
2022-09-23T09:46:50.857Z,8.15
2022-09-23T09:49:39.499Z,7.50
2022-09-23T09:52:13.972Z,7.50
2022-09-23T09:54:40.678Z,6.90
2022-09-23T09:57:33.613Z,7.05
2022-09-23T10:00:25.710Z,7.47
2022-09-23T10:02:54.270Z,6.68
2022-09-23T10:05:34.452Z,7.03
2022-09-23T10:08:27.295Z,6.65
2022-09-23T10:11:06.902Z,7.03
2022-09-23T10:13:33.552Z,7.10
2022-09-23T10:16:03.816Z,6.50
2022-09-23T10:18:50.348Z,6.78
2022-09-23T10:21:25.509Z,6.40
2022-09-23T10:24:01.553Z,6.20
2022-09-23T10:26:42.555Z,6.47
2022-09-23T10:29:32.951Z,6.60
2022-09-23T10:32:27.818Z,6.25
2022-09-23T10:35:03.308Z,5.70
2022-09-23T10:37:46.775Z,6.00
2022-09-23T10:40:32.385Z,5.85
2022-09-23T10:43:29.927Z,5.68
2022-09-23T10:46:21.763Z,5.47
2022-09-23T10:51:58.515Z,5.73
2022-09-23T10:54:40.140Z,6.05
2022-09-23T10:57:45.547Z,5.90
2022-09-23T11:00:27.243Z,6.20
2022-09-23T11:05:50.004Z,5.55
2022-09-23T11:08:42.731Z,5.85
2022-09-23T11:11:15.592Z,6.88
2022-09-23T11:14:04.151Z,6.00
2022-09-23T11:16:54.306Z,5.82
2022-09-23T11:19:56.455Z,6.60
2022-09-23T11:22:37.396Z,6.82
2022-09-23T11:25:58.150Z,6.83
2022-09-23T11:28:45.397Z,7.00
2022-09-23T11:31:36.371Z,7.35
2022-09-23T11:34:26.010Z,7.27
2022-09-23T11:36:59.690Z,6.68
2022-09-23T11:39:53.299Z,7.25
2022-09-23T11:42:25.065Z,6.10
2022-09-23T11:45:06.925Z,6.38
2022-09-23T11:47:44.969Z,6.00
2022-09-23T11:50:21.521Z,6.50
2022-09-23T11:52:53.906Z,6.00
2022-09-23T11:55:55.029Z,5.93
2022-09-23T11:58:30.166Z,6.00
2022-09-23T12:01:10.162Z,5.45
2022-09-23T12:04:17.298Z,6.07
2022-09-23T12:06:52.594Z,5.82
2022-09-23T12:09:56.853Z,5.85
2022-09-23T12:12:39.704Z,5.85
2022-09-23T12:15:21.520Z,5.32
2022-09-23T12:18:06.899Z,4.60
2022-09-23T12:20:55.839Z,4.93
2022-09-23T12:23:40.272Z,4.68
2022-09-23T12:26:17.221Z,4.45
2022-09-23T12:28:46.762Z,4.00
2022-09-23T12:31:17.022Z,4.10
2022-09-23T12:33:52.898Z,4.00
2022-09-23T12:36:35.423Z,3.33
2022-09-23T12:39:15.783Z,3.42
2022-09-23T12:41:48.645Z,3.28
2022-09-23T12:44:32.364Z,3.50
2022-09-23T12:47:27.999Z,3.28
2022-09-23T12:49:58.738Z,3.53
2022-09-23T12:52:28.542Z,6.40
2022-09-23T12:55:24.889Z,3.38
2022-09-23T12:57:51.571Z,3.13
2022-09-23T13:00:22.685Z,3.30
2022-09-23T13:03:12.317Z,3.60
2022-09-23T13:06:20.385Z,3.15
2022-09-23T13:08:49.370Z,4.05
2022-09-23T13:11:31.426Z,3.33
2022-09-23T13:14:02.638Z,3.95
2022-09-23T13:16:30.965Z,3.33
2022-09-23T13:19:01.330Z,3.42
2022-09-23T13:21:43.193Z,3.75
2022-09-23T13:24:20.316Z,3.42
2022-09-23T13:26:48.026Z,4.28
2022-09-23T13:29:25.681Z,3.78
2022-09-23T13:31:53.370Z,3.90
2022-09-23T13:34:24.388Z,4.20
2022-09-23T13:36:51.047Z,4.05
2022-09-23T13:39:28.753Z,3.55
2022-09-23T13:42:01.983Z,3.50
2022-09-23T13:44:29.661Z,4.22
2022-09-23T13:47:02.172Z,5.53
2022-09-23T13:49:35.331Z,4.75
2022-09-23T13:52:02.849Z,4.60
2022-09-23T13:54:36.341Z,5.07
2022-09-23T13:57:03.794Z,5.55
2022-09-23T13:59:38.003Z,5.05
2022-09-23T14:02:12.252Z,7.00
2022-09-23T14:04:39.413Z,5.78
2022-09-23T14:07:09.462Z,5.93
2022-09-23T14:09:37.908Z,7.10
2022-09-23T14:12:06.398Z,7.15
2022-09-23T14:14:36.408Z,7.80
2022-09-23T14:17:04.816Z,7.53
2022-09-23T14:19:32.487Z,6.68
2022-09-23T14:22:00.073Z,7.47
2022-09-23T14:24:29.723Z,7.25
2022-09-23T14:26:58.606Z,8.00
2022-09-23T14:29:37.290Z,7.78
2022-09-23T14:32:07.605Z,6.70
2022-09-23T14:34:45.495Z,7.95
2022-09-23T14:37:56.884Z,7.40
2022-09-23T14:40:31.033Z,6.85
2022-09-23T14:43:03.710Z,7.55
2022-09-23T14:45:40.774Z,7.32
2022-09-23T14:48:10.696Z,5.97
2022-09-23T14:50:39.361Z,7.25
2022-09-23T14:53:36.425Z,6.32
2022-09-23T14:56:06.042Z,7.10
2022-09-23T14:58:43.006Z,6.80
2022-09-23T15:01:38.787Z,6.13
2022-09-23T15:04:13.014Z,7.13
2022-09-23T15:06:44.939Z,6.43
2022-09-23T15:09:20.076Z,6.05
2022-09-23T15:11:47.253Z,5.82
2022-09-23T15:14:36.650Z,7.78
2022-09-23T15:17:03.541Z,5.75
2022-09-23T15:19:31.577Z,6.07
2022-09-23T15:21:58.334Z,6.95
2022-09-23T15:24:45.708Z,5.90
2022-09-23T15:27:30.482Z,6.35
2022-09-23T15:30:17.033Z,6.50
2022-09-23T15:32:45.569Z,5.10
2022-09-23T15:35:15.599Z,6.30
2022-09-23T15:37:43.850Z,6.55
2022-09-23T15:40:25.665Z,5.40
2022-09-23T15:42:56.248Z,6.53
2022-09-23T15:45:31.771Z,5.80
2022-09-23T15:48:03.205Z,5.97
2022-09-23T15:50:31.149Z,5.78
2022-09-23T15:52:57.913Z,6.50
2022-09-23T15:55:24.654Z,5.32
2022-09-23T15:57:51.313Z,5.45
2022-09-23T16:00:18.091Z,6.03
2022-09-23T16:02:47.063Z,6.18
2022-09-23T16:05:25.028Z,5.85
2022-09-23T16:07:52.427Z,6.25
2022-09-23T16:10:20.990Z,5.82
2022-09-23T16:12:48.289Z,5.90
2022-09-23T16:15:19.276Z,5.78
2022-09-23T16:17:46.068Z,5.85
2022-09-23T16:20:17.645Z,6.78
2022-09-23T16:25:15.594Z,6.97
2022-09-23T16:27:42.237Z,7.28
2022-09-23T16:30:10.111Z,7.45
2022-09-23T16:32:36.822Z,7.63
2022-09-23T16:35:03.949Z,7.68
2022-09-23T16:37:30.715Z,7.28
2022-09-23T16:39:57.515Z,7.60
2022-09-23T16:42:24.155Z,8.13
2022-09-23T16:44:50.791Z,7.63
2022-09-23T16:47:17.546Z,8.18
2022-09-23T16:49:44.249Z,8.32
2022-09-23T16:52:14.355Z,7.60
2022-09-23T16:54:42.167Z,8.07
2022-09-23T16:57:09.672Z,8.77
2022-09-23T16:59:54.743Z,11.20
2022-09-23T17:02:40.157Z,15.88
2022-09-23T17:05:07.310Z,13.90
2022-09-23T17:07:33.932Z,13.50
2022-09-23T17:10:00.609Z,13.77
2022-09-23T17:12:32.591Z,12.13
2022-09-23T17:15:00.544Z,11.52
2022-09-23T17:17:28.386Z,10.65
2022-09-23T17:19:55.027Z,10.80
2022-09-23T17:22:21.761Z,12.57
2022-09-23T17:24:48.390Z,10.98
2022-09-23T17:27:17.093Z,12.48
2022-09-23T17:29:44.423Z,12.10
2022-09-23T17:32:11.112Z,13.70
2022-09-23T17:34:37.793Z,14.73
2022-09-23T17:37:05.578Z,14.48
2022-09-23T17:39:32.219Z,14.82
2022-09-23T17:41:59.117Z,14.57
2022-09-23T17:44:26.371Z,14.32
2022-09-23T17:46:53.035Z,15.20
2022-09-23T17:49:20.277Z,17.13
2022-09-23T17:51:47.009Z,16.88
2022-09-23T17:54:14.981Z,17.92
2022-09-23T17:56:42.529Z,21.67
2022-09-23T17:59:12.553Z,18.90
2022-09-23T18:01:39.286Z,18.90
2022-09-23T18:04:06.060Z,17.85
2022-09-23T18:06:37.135Z,16.48
2022-09-23T18:09:06.509Z,16.77
2022-09-23T18:11:36.048Z,17.73
2022-09-23T18:14:05.669Z,16.95
2022-09-23T18:16:38.594Z,18.92
2022-09-23T18:19:06.876Z,19.33
2022-09-23T18:21:37.316Z,17.83
2022-09-23T18:24:28.562Z,17.92
2022-09-23T18:26:51.110Z,20.70
2022-09-23T18:29:18.510Z,20.08
2022-09-23T18:31:45.717Z,21.27
2022-09-23T18:34:15.190Z,22.65
2022-09-23T18:36:42.321Z,21.08
2022-09-23T18:39:09.260Z,19.88
2022-09-23T18:41:36.161Z,20.30
2022-09-23T18:44:03.802Z,20.92
2022-09-23T18:46:31.530Z,20.77
2022-09-23T18:49:17.306Z,20.25
2022-09-23T18:51:53.600Z,20.30
2022-09-23T18:54:20.480Z,20.60
2022-09-23T18:56:47.482Z,20.27
2022-09-23T18:59:18.020Z,20.65
2022-09-23T19:01:45.880Z,21.35
2022-09-23T19:04:14.134Z,22.33
2022-09-23T19:06:40.787Z,22.15
2022-09-23T19:09:07.685Z,23.58
2022-09-23T19:11:36.217Z,23.25
2022-09-23T19:14:05.846Z,22.48
2022-09-23T19:16:33.280Z,22.25
2022-09-23T19:19:00.338Z,21.73
2022-09-23T19:21:28.398Z,22.40
2022-09-23T19:24:03.660Z,21.60
2022-09-23T19:26:41.362Z,23.30
2022-09-23T19:29:12.477Z,22.92
2022-09-23T19:31:40.001Z,22.88
2022-09-23T19:34:12.172Z,22.77
2022-09-23T19:36:40.730Z,21.60
2022-09-23T19:39:15.062Z,21.20
2022-09-23T19:41:41.813Z,21.25
2022-09-23T19:44:08.692Z,21.67
2022-09-23T19:46:37.707Z,22.25
2022-09-23T19:49:05.957Z,20.85
2022-09-23T19:51:34.023Z,21.23
2022-09-23T19:54:02.105Z,23.52
2022-09-23T19:56:30.466Z,23.95
2022-09-23T19:58:58.234Z,21.38
2022-09-23T20:01:29.596Z,21.83
2022-09-23T20:03:56.738Z,22.45
2022-09-23T20:06:23.552Z,23.23
2022-09-23T20:08:50.317Z,21.83
2022-09-23T20:11:21.788Z,22.15
2022-09-23T20:13:58.428Z,23.45
2022-09-23T20:16:25.837Z,22.08
2022-09-23T20:18:53.006Z,23.23
2022-09-23T20:21:19.665Z,23.15
2022-09-23T20:23:46.337Z,23.85
2022-09-23T20:26:31.612Z,23.85
2022-09-23T20:29:01.364Z,23.58
2022-09-23T20:31:28.714Z,23.85
2022-09-23T20:33:58.496Z,24.90
2022-09-23T20:36:26.628Z,23.02
2022-09-23T20:38:59.610Z,24.10
2022-09-23T20:41:27.847Z,23.35
2022-09-23T20:43:55.284Z,22.95
2022-09-23T20:46:23.399Z,23.55
2022-09-23T20:48:50.312Z,22.88
2022-09-23T20:51:17.799Z,23.88
2022-09-23T20:53:45.735Z,24.40
2022-09-23T20:56:13.890Z,24.23
2022-09-23T20:58:40.571Z,23.90
2022-09-23T21:01:12.432Z,24.30
2022-09-23T21:03:41.661Z,23.08
2022-09-23T21:06:09.690Z,23.48
2022-09-23T21:08:37.689Z,22.33
2022-09-23T21:11:08.034Z,22.88
2022-09-23T21:13:35.240Z,21.90
2022-09-23T21:16:03.763Z,21.13
2022-09-23T21:18:30.890Z,20.83
2022-09-23T21:20:59.444Z,20.70
2022-09-23T21:23:34.402Z,20.08
2022-09-23T21:26:12.076Z,20.52
2022-09-23T21:28:43.896Z,21.02
2022-09-23T21:31:22.590Z,18.92
2022-09-23T21:33:53.357Z,18.13
2022-09-23T21:36:20.902Z,19.27
2022-09-23T21:38:47.608Z,18.50
2022-09-23T21:41:14.329Z,19.45
2022-09-23T21:43:41.344Z,20.40
2022-09-23T21:46:10.901Z,19.67
2022-09-23T21:48:41.088Z,19.23
2022-09-23T21:51:13.372Z,20.05
2022-09-23T21:53:41.214Z,20.58
2022-09-23T21:56:11.880Z,19.77
2022-09-23T21:58:40.732Z,21.45
2022-09-23T22:01:20.461Z,21.10
2022-09-23T22:03:57.801Z,23.33
2022-09-23T22:06:27.109Z,22.92
2022-09-23T22:08:55.706Z,24.02
2022-09-23T22:11:41.952Z,25.58
2022-09-23T22:14:11.786Z,25.45
2022-09-23T22:16:39.191Z,25.85
2022-09-23T22:19:09.193Z,26.98
2022-09-23T22:21:38.044Z,27.40
2022-09-23T22:24:07.300Z,28.75
2022-09-23T22:26:36.572Z,28.13
2022-09-23T22:29:27.956Z,28.17
2022-09-23T22:32:13.274Z,28.25
2022-09-23T22:34:51.463Z,25.98
2022-09-23T22:37:27.585Z,27.23
2022-09-23T22:39:54.577Z,27.27
2022-09-23T22:42:22.315Z,27.13
2022-09-23T22:44:50.126Z,25.52
2022-09-23T22:47:20.037Z,23.73
2022-09-23T22:49:47.209Z,24.05
2022-09-23T22:52:15.833Z,24.60
2022-09-23T22:54:42.486Z,25.90
2022-09-23T22:57:09.817Z,24.48
2022-09-23T22:59:37.350Z,25.00
2022-09-23T23:02:05.075Z,24.95
2022-09-23T23:04:31.964Z,25.42
2022-09-23T23:06:58.780Z,25.05
2022-09-23T23:09:25.815Z,25.80
2022-09-23T23:11:52.461Z,25.20
2022-09-23T23:14:19.453Z,25.40
2022-09-23T23:16:47.122Z,26.10
2022-09-23T23:19:16.962Z,28.23
2022-09-23T23:21:45.446Z,26.35
2022-09-23T23:24:20.854Z,27.13
2022-09-23T23:26:48.556Z,26.33
2022-09-23T23:29:17.613Z,25.80
2022-09-23T23:31:44.994Z,26.25
2022-09-23T23:34:14.643Z,26.48
2022-09-23T23:36:41.477Z,25.83
2022-09-23T23:39:08.370Z,25.98
2022-09-23T23:41:35.065Z,26.42
2022-09-23T23:44:01.966Z,25.98
2022-09-23T23:46:30.531Z,25.77
2022-09-23T23:48:58.125Z,24.92
2022-09-23T23:51:26.454Z,26.05
2022-09-23T23:53:54.157Z,26.90
2022-09-23T23:56:22.953Z,27.25
2022-09-23T23:59:01.097Z,27.75
